Time;durP1;ratioP1;P1;durP2;ratioP2;P2;SDS_P1;SDS_P2;PMS_P1;PMS_P2;Temp;Humidity;BMP_temperature;BMP_pressure;BME280_temperature;BME280_humidity;BME280_pressure;Samples;Min_cycle;Max_cycle;Signal;HPM_P1;HPM_P2
2022/09/08 00:02:19;;;;;;;3.10;2.90;;;;;;;18.84;76.37;99925.72;5053502;28;20245;-72
2022/09/08 00:04:45;;;;;;;3.37;3.07;;;;;;;18.95;75.54;99930.34;5053059;28;20279;-72
2022/09/08 00:07:12;;;;;;;3.63;3.40;;;;;;;18.86;76.00;99946.78;5053092;28;20202;-72
2022/09/08 00:09:40;;;;;;;3.37;3.07;;;;;;;18.88;75.82;99952.81;5052206;28;20245;-72
2022/09/08 00:12:06;;;;;;;2.83;2.63;;;;;;;18.82;75.87;99953.19;5052933;28;20662;-72
2022/09/08 00:14:34;;;;;;;3.20;2.87;;;;;;;18.77;76.05;99949.94;5052943;28;20225;-72
2022/09/08 00:17:00;;;;;;;3.50;3.03;;;;;;;18.72;76.07;99946.75;5052724;28;20569;-72
2022/09/08 00:19:27;;;;;;;3.67;3.33;;;;;;;18.69;76.30;99945.16;5053089;28;20206;-72
2022/09/08 00:21:54;;;;;;;3.70;3.20;;;;;;;18.63;75.81;99945.50;5052953;28;20202;-72
2022/09/08 00:24:20;;;;;;;3.00;2.80;;;;;;;18.59;76.41;99938.69;5052826;28;20234;-72
2022/09/08 00:26:48;;;;;;;3.40;3.20;;;;;;;18.54;76.82;99904.63;5052455;28;20201;-72
2022/09/08 00:29:15;;;;;;;2.90;2.70;;;;;;;18.50;76.93;99889.88;5052843;28;20220;-72
2022/09/08 00:31:42;;;;;;;3.30;3.00;;;;;;;18.48;77.88;99872.44;5052807;28;20259;-72
2022/09/08 00:34:09;;;;;;;3.03;2.83;;;;;;;18.48;77.88;99865.34;5052887;28;20302;-72
2022/09/08 00:36:37;;;;;;;3.23;2.93;;;;;;;18.50;76.98;99883.75;5052227;28;20222;-72
2022/09/08 00:39:03;;;;;;;4.10;3.70;;;;;;;18.47;78.83;99839.84;5052406;28;20663;-72
2022/09/08 00:41:30;;;;;;;4.30;4.00;;;;;;;18.45;79.04;99825.88;5052518;28;20271;-72
2022/09/08 00:44:00;;;;;;;4.60;4.30;;;;;;;18.53;78.60;99842.13;5052310;28;20613;-72
2022/09/08 00:46:34;;;;;;;4.30;4.00;;;;;;;18.53;78.88;99830.69;5052396;28;20217;-72
2022/09/08 00:49:07;;;;;;;4.03;3.43;;;;;;;18.63;78.11;99845.91;5052578;28;20213;-72
2022/09/08 00:51:36;;;;;;;4.03;3.20;;;;;;;18.68;78.64;99845.59;5052372;28;20210;-72
2022/09/08 00:54:03;;;;;;;3.60;3.40;;;;;;;18.69;78.45;99849.97;5052228;28;20229;-72
2022/09/08 00:56:30;;;;;;;4.03;3.73;;;;;;;18.69;78.83;99847.31;5052068;28;20229;-72
2022/09/08 00:59:00;;;;;;;4.10;3.83;;;;;;;18.69;78.78;99843.81;5052350;28;20255;-72
2022/09/08 01:01:27;;;;;;;4.90;4.40;;;;;;;18.69;79.14;99833.22;5052282;28;20263;-72
2022/09/08 01:03:55;;;;;;;6.87;4.90;;;;;;;18.65;78.99;99827.28;5052571;28;20225;-72
2022/09/08 01:15:06;;;;;;;4.93;4.47;;;;;;;18.43;80.24;99794.28;5051782;28;20506;-72
2022/09/08 01:17:32;;;;;;;5.97;5.47;;;;;;;18.42;80.54;99781.16;5052127;28;20237;-72
2022/09/08 01:20:00;;;;;;;5.33;4.93;;;;;;;18.45;80.11;99791.53;5051753;28;20263;-72
2022/09/08 01:22:46;;;;;;;4.67;3.93;;;;;;;18.48;80.27;99793.16;5051908;28;20263;-72
2022/09/08 01:25:25;;;;;;;5.20;4.33;;;;;;;18.41;80.98;99784.72;5051514;28;20232;-72
2022/09/08 01:28:00;;;;;;;6.03;4.80;;;;;;;18.40;80.98;99783.88;5051898;28;20212;-72
2022/09/08 01:30:27;;;;;;;5.40;5.00;;;;;;;18.37;80.91;99789.34;5051923;28;20679;-72
2022/09/08 01:32:54;;;;;;;5.10;4.80;;;;;;;18.37;80.97;99776.13;5051800;28;20209;-72
2022/09/08 01:35:28;;;;;;;6.63;6.20;;;;;;;18.44;80.88;99780.09;5051407;28;20233;-72
2022/09/08 01:37:55;;;;;;;6.30;5.87;;;;;;;18.50;80.87;99778.88;5044706;28;20205;-72
2022/09/08 01:40:21;;;;;;;6.63;6.23;;;;;;;18.42;81.09;99779.34;5051697;28;20614;-72
2022/09/08 01:42:48;;;;;;;7.53;6.93;;;;;;;18.38;81.42;99764.63;5051824;28;20202;-72
2022/09/08 01:45:15;;;;;;;7.57;7.07;;;;;;;18.35;81.49;99764.81;5051379;28;20715;-72
2022/09/08 01:47:42;;;;;;;8.40;7.80;;;;;;;18.35;81.69;99756.88;5051720;28;20251;-72
2022/09/08 01:50:09;;;;;;;8.00;7.50;;;;;;;18.32;82.23;99740.41;5051498;28;20263;-72
2022/09/08 01:52:35;;;;;;;7.30;6.90;;;;;;;18.25;81.85;99739.91;5051665;28;20219;-72
2022/09/08 01:55:02;;;;;;;8.00;7.47;;;;;;;18.28;81.24;99760.88;5051514;28;20271;-72
2022/09/08 01:57:29;;;;;;;7.80;7.30;;;;;;;18.25;81.32;99755.75;5051451;28;20225;-72
2022/09/08 01:59:56;;;;;;;7.73;7.03;;;;;;;18.24;81.54;99757.56;5051587;28;20641;-72
2022/09/08 02:02:23;;;;;;;8.60;7.90;;;;;;;18.19;82.27;99759.63;5051584;28;20209;-72
2022/09/08 02:04:50;;;;;;;8.30;7.70;;;;;;;18.12;82.87;99729.28;5051038;28;20283;-72
2022/09/08 02:07:16;;;;;;;7.50;7.00;;;;;;;18.15;82.81;99728.22;5051145;28;20549;-72
2022/09/08 02:09:44;;;;;;;8.17;7.47;;;;;;;18.23;82.47;99731.22;5051483;28;20239;-72
2022/09/08 02:12:11;;;;;;;7.40;6.83;;;;;;;18.29;82.35;99727.38;5051367;28;20690;-72
2022/09/08 02:14:37;;;;;;;8.07;7.47;;;;;;;18.25;82.74;99719.66;5051359;28;20230;-72
2022/09/08 02:17:04;;;;;;;7.97;7.47;;;;;;;18.21;82.95;99714.63;5051060;28;20279;-72
2022/09/08 02:19:32;;;;;;;7.77;7.27;;;;;;;18.13;82.56;99722.19;5051530;28;20205;-72
2022/09/08 02:21:58;;;;;;;8.60;8.00;;;;;;;18.11;82.21;99729.34;5051256;28;20744;-72
2022/09/08 02:24:25;;;;;;;9.80;8.97;;;;;;;18.04;82.78;99726.25;5051333;28;20279;-72
2022/09/08 02:26:51;;;;;;;9.27;8.50;;;;;;;18.01;82.68;99719.34;5051013;28;20248;-72
2022/09/08 02:29:18;;;;;;;8.27;7.67;;;;;;;18.02;83.17;99709.66;5051176;28;20641;-72
2022/09/08 02:31:44;;;;;;;10.20;9.43;;;;;;;18.13;82.89;99714.25;5051571;28;20221;-72
2022/09/08 02:34:10;;;;;;;10.70;10.00;;;;;;;18.17;83.33;99706.03;5054795;28;20714;-72
2022/09/08 02:36:38;;;;;;;11.80;10.90;;;;;;;17.63;86.48;99656.50;5054464;28;20221;-72
2022/09/08 02:39:05;;;;;;;11.20;10.33;;;;;;;17.61;88.61;99571.31;5055075;28;20209;-72
2022/09/08 02:41:31;;;;;;;10.73;9.93;;;;;;;17.70;86.77;99591.03;5054893;28;20202;-72
2022/09/08 02:43:58;;;;;;;9.83;9.23;;;;;;;17.77;85.24;99636.34;5054737;28;20229;-72
2022/09/08 02:46:25;;;;;;;10.10;9.40;;;;;;;17.84;84.79;99672.03;5054398;28;20570;-72
2022/09/08 02:48:52;;;;;;;7.90;7.20;;;;;;;17.85;84.37;99689.56;5054816;28;20211;-72
2022/09/08 02:51:18;;;;;;;7.17;6.67;;;;;;;17.88;84.46;99693.78;5054503;28;20740;-72
2022/09/08 02:53:46;;;;;;;7.70;7.10;;;;;;;17.87;84.06;99716.72;5054742;28;20236;-72
2022/09/08 02:56:13;;;;;;;8.33;7.63;;;;;;;17.92;83.42;99734.91;5054314;28;20266;-72
2022/09/08 02:58:40;;;;;;;8.67;8.07;;;;;;;17.96;83.72;99739.09;5054490;28;20206;-72
2022/09/08 03:01:07;;;;;;;8.80;8.00;;;;;;;18.01;83.52;99734.34;5054437;28;20241;-72
2022/09/08 03:03:33;;;;;;;9.80;9.10;;;;;;;18.04;82.55;99756.16;5054591;28;20233;-72
2022/09/08 03:06:01;;;;;;;11.70;9.63;;;;;;;17.99;83.33;99742.38;5053391;28;20243;-72
2022/09/08 03:08:27;;;;;;;8.87;8.27;;;;;;;17.94;83.02;99749.72;5054040;28;20578;-72
2022/09/08 03:10:55;;;;;;;8.97;8.27;;;;;;;17.94;82.67;99755.00;5054236;28;20198;-72
2022/09/08 03:13:24;;;;;;;8.13;7.53;;;;;;;17.95;82.60;99758.50;5054079;28;20263;-72
2022/09/08 03:15:51;;;;;;;8.60;7.80;;;;;;;17.89;83.23;99743.88;5053761;28;20275;-72
2022/09/08 03:18:17;;;;;;;8.40;7.77;;;;;;;17.88;83.23;99739.53;5054316;28;20210;-72
2022/09/08 03:20:45;;;;;;;8.60;8.00;;;;;;;17.86;83.22;99734.34;5054194;28;20251;-72
2022/09/08 03:23:16;;;;;;;8.90;8.30;;;;;;;17.77;84.22;99711.09;5053854;28;20584;-72
2022/09/08 03:25:43;;;;;;;8.50;7.90;;;;;;;17.73;84.16;99696.41;5053848;28;20210;-72
2022/09/08 03:28:17;;;;;;;8.67;7.93;;;;;;;17.69;84.83;99665.00;5053863;28;20221;-72
2022/09/08 03:30:44;;;;;;;9.00;8.30;;;;;;;17.71;84.74;99661.31;5054105;28;20216;-72
2022/09/08 03:33:10;;;;;;;9.87;9.17;;;;;;;17.72;84.81;99659.53;5053928;28;20282;-72
2022/09/08 03:35:37;;;;;;;9.93;9.27;;;;;;;17.69;84.40;99671.13;5053715;28;20274;-72
2022/09/08 03:38:03;;;;;;;9.53;8.60;;;;;;;17.70;84.75;99662.28;5053856;28;20221;-72
2022/09/08 03:40:29;;;;;;;9.20;8.57;;;;;;;17.72;84.25;99685.91;5053782;28;20205;-72
2022/09/08 03:42:56;;;;;;;9.77;9.13;;;;;;;17.70;84.39;99680.75;5053470;28;20216;-72
2022/09/08 03:45:24;;;;;;;11.03;9.23;;;;;;;17.72;84.52;99689.44;5053617;28;20306;-72
2022/09/08 03:47:50;;;;;;;10.33;9.33;;;;;;;17.70;85.02;99670.19;5053864;28;20205;-72
2022/09/08 03:50:17;;;;;;;9.63;8.97;;;;;;;17.60;85.31;99645.28;5053615;28;20259;-72
2022/09/08 03:52:44;;;;;;;9.50;8.90;;;;;;;17.59;85.09;99647.09;5053728;28;20204;-72
2022/09/08 03:55:12;;;;;;;11.17;10.37;;;;;;;17.55;85.87;99634.19;5053680;28;20225;-72
2022/09/08 03:57:39;;;;;;;10.47;9.77;;;;;;;17.51;85.75;99615.03;5053154;28;20271;-72
2022/09/08 04:00:09;;;;;;;10.27;9.50;;;;;;;17.44;86.87;99596.09;5053548;28;20209;-72
2022/09/08 04:02:37;;;;;;;10.73;9.93;;;;;;;17.40;86.70;99591.97;5053555;28;20230;-72
2022/09/08 04:05:05;;;;;;;10.17;9.47;;;;;;;17.37;86.79;99583.38;5052892;28;20776;-72
2022/09/08 04:07:31;;;;;;;10.03;9.33;;;;;;;17.40;86.31;99588.44;5053046;28;20201;-72
2022/09/08 04:09:59;;;;;;;11.40;10.60;;;;;;;17.38;86.83;99571.88;5052993;28;20209;-72
2022/09/08 04:12:26;;;;;;;11.30;10.50;;;;;;;17.33;87.72;99556.34;5053282;28;20217;-72
2022/09/08 04:14:53;;;;;;;10.53;9.57;;;;;;;17.33;87.37;99566.88;5052903;28;20226;-72
2022/09/08 04:17:20;;;;;;;11.47;10.37;;;;;;;17.28;88.16;99553.13;5053036;28;20225;-72
2022/09/08 04:19:50;;;;;;;10.97;10.17;;;;;;;17.36;87.65;99550.00;5052956;28;20217;-72
2022/09/08 04:22:17;;;;;;;10.60;9.83;;;;;;;17.36;86.53;99571.13;5052909;28;20205;-72
2022/09/08 04:24:44;;;;;;;11.63;10.83;;;;;;;17.42;86.87;99568.97;5052666;28;20346;-72
2022/09/08 04:27:10;;;;;;;12.00;10.97;;;;;;;17.42;86.60;99571.59;5052723;28;20201;-72
2022/09/08 04:29:36;;;;;;;16.70;15.47;;;;;;;17.42;86.53;99579.53;5052962;28;20703;-72
2022/09/08 04:32:03;;;;;;;19.03;17.30;;;;;;;17.43;86.87;99570.66;5052693;28;20617;-72
2022/09/08 04:34:30;;;;;;;18.33;16.87;;;;;;;17.44;87.28;99553.88;5052496;28;20286;-72
2022/09/08 04:36:57;;;;;;;18.23;16.83;;;;;;;17.45;87.34;99560.84;5052243;28;20263;-72
2022/09/08 04:39:24;;;;;;;19.03;17.53;;;;;;;17.40;87.61;99549.75;5052359;28;20204;-72
2022/09/08 04:41:50;;;;;;;18.83;17.43;;;;;;;17.46;88.07;99532.66;5052669;28;20275;-72
2022/09/08 04:44:17;;;;;;;17.53;16.33;;;;;;;17.45;88.23;99534.47;5052516;28;20230;-72
2022/09/08 04:46:43;;;;;;;17.67;16.47;;;;;;;17.49;88.20;99531.66;5052420;28;20202;-72
2022/09/08 04:49:10;;;;;;;18.80;17.40;;;;;;;17.51;88.57;99524.47;5052377;28;20262;-72
2022/09/08 04:51:36;;;;;;;19.93;18.60;;;;;;;17.49;90.14;99500.81;5052586;28;20275;-72
2022/09/08 04:54:04;;;;;;;21.07;19.37;;;;;;;17.47;90.86;99486.88;5052236;28;20310;-72
2022/09/08 04:56:31;;;;;;;23.07;21.50;;;;;;;17.39;92.08;99468.91;5051853;28;20278;-72
2022/09/08 04:58:59;;;;;;;21.33;19.73;;;;;;;17.37;92.35;99454.94;5052449;28;20201;-72
2022/09/08 05:01:27;;;;;;;19.60;18.33;;;;;;;17.45;92.23;99450.03;5052304;28;20259;-72
2022/09/08 05:03:56;;;;;;;21.20;19.40;;;;;;;17.50;91.77;99472.63;5051996;28;20633;-72
2022/09/08 05:06:23;;;;;;;20.50;19.10;;;;;;;17.56;91.59;99485.44;5051758;28;20262;-72
2022/09/08 05:08:51;;;;;;;19.20;17.77;;;;;;;17.49;91.67;99489.44;5051843;28;20205;-72
2022/09/08 05:11:20;;;;;;;20.23;18.83;;;;;;;17.50;91.66;99485.84;5051003;28;20215;-72
2022/09/08 05:13:49;;;;;;;19.93;18.33;;;;;;;17.53;91.59;99496.22;5041605;28;20783;-72
2022/09/08 05:16:17;;;;;;;19.20;17.80;;;;;;;17.55;91.44;99515.44;5040305;28;20198;-72
2022/09/08 05:18:47;;;;;;;17.97;16.67;;;;;;;17.51;91.02;99525.31;5041481;28;20251;-72
2022/09/08 05:21:14;;;;;;;18.73;17.27;;;;;;;17.51;91.30;99529.75;5040146;28;20248;-72
2022/09/08 05:23:40;;;;;;;16.57;15.30;;;;;;;17.47;91.58;99524.66;5046202;28;20231;-72
2022/09/08 05:26:10;;;;;;;17.07;15.77;;;;;;;17.50;91.35;99528.06;5041140;28;20209;-72
2022/09/08 05:28:39;;;;;;;18.30;17.00;;;;;;;17.58;91.00;99552.16;5042374;28;20561;-72
2022/09/08 05:31:08;;;;;;;16.53;15.33;;;;;;;17.65;90.95;99550.84;5039450;28;20248;-72
2022/09/08 05:33:35;;;;;;;19.23;17.73;;;;;;;17.63;90.72;99558.84;5042172;28;20217;-72
2022/09/08 05:36:01;;;;;;;21.90;20.10;;;;;;;17.66;90.94;99553.41;5043382;28;20201;-72
2022/09/08 05:38:28;;;;;;;21.43;19.63;;;;;;;17.66;91.48;99545.47;5047458;28;20271;-72
2022/09/08 05:40:55;;;;;;;22.03;19.97;;;;;;;17.63;90.58;99561.50;5052078;28;20214;-72
2022/09/08 05:43:21;;;;;;;22.83;20.73;;;;;;;17.67;91.16;99551.59;5040663;28;20259;-72
2022/09/08 05:45:50;;;;;;;21.67;20.03;;;;;;;17.62;91.44;99553.66;5045975;28;20204;-73
2022/09/08 05:48:17;;;;;;;22.07;20.37;;;;;;;17.65;91.35;99559.59;5042824;28;20201;-72
2022/09/08 05:50:44;;;;;;;27.20;22.53;;;;;;;17.66;90.10;99577.16;5041782;28;20201;-72
2022/09/08 05:53:12;;;;;;;20.67;18.97;;;;;;;17.77;89.50;99592.31;5041865;28;20198;-72
2022/09/08 05:55:40;;;;;;;22.00;19.87;;;;;;;17.78;89.58;99601.06;5039922;28;20202;-72
2022/09/08 05:58:07;;;;;;;18.87;17.43;;;;;;;17.77;89.51;99591.47;5041158;28;20315;-72
2022/09/08 06:00:33;;;;;;;20.03;18.10;;;;;;;17.83;88.89;99605.16;5039118;28;20209;-72
2022/09/08 06:03:01;;;;;;;19.43;17.83;;;;;;;17.85;88.78;99610.34;5031465;28;20206;-72
2022/09/08 06:05:27;;;;;;;18.00;16.47;;;;;;;17.82;88.26;99629.00;5032086;28;20230;-74
2022/09/08 06:07:54;;;;;;;17.10;15.70;;;;;;;17.82;87.49;99644.84;5055271;28;20197;-74
2022/09/08 06:10:20;;;;;;;18.13;16.83;;;;;;;17.78;87.76;99644.19;5055394;28;20205;-74
2022/09/08 06:12:47;;;;;;;16.47;15.17;;;;;;;17.76;88.12;99637.28;5047570;28;20219;-73
2022/09/08 06:15:13;;;;;;;16.63;15.33;;;;;;;17.80;87.76;99646.69;5045132;28;20222;-73
2022/09/08 06:17:40;;;;;;;17.33;16.00;;;;;;;17.77;87.54;99655.66;5046391;28;20217;-73
2022/09/08 06:20:09;;;;;;;17.03;15.83;;;;;;;17.77;88.67;99629.28;5055279;28;20262;-73
2022/09/08 06:22:35;;;;;;;18.27;17.03;;;;;;;17.83;89.12;99615.72;5055011;28;20209;-73
2022/09/08 06:25:03;;;;;;;17.80;16.47;;;;;;;17.84;89.02;99604.22;5054789;28;20229;-74
2022/09/08 06:27:39;;;;;;;19.43;17.87;;;;;;;17.91;89.24;99609.97;5055132;28;20206;-73
2022/09/08 06:30:10;;;;;;;17.83;16.53;;;;;;;17.96;89.42;99596.50;5055148;28;20527;-73
2022/09/08 06:32:40;;;;;;;16.63;15.33;;;;;;;17.99;90.14;99583.91;5054642;28;20209;-73
2022/09/08 06:35:14;;;;;;;19.70;18.10;;;;;;;18.01;90.12;99578.53;5054791;28;20233;-73
2022/09/08 06:37:47;;;;;;;19.10;17.60;;;;;;;18.05;90.40;99570.31;5054907;28;20221;-73
2022/09/08 06:40:18;;;;;;;19.33;17.83;;;;;;;17.84;91.36;99543.50;5054803;28;20620;-73
2022/09/08 06:42:53;;;;;;;20.07;18.43;;;;;;;17.91;91.29;99538.66;5055172;28;20236;-73
2022/09/08 06:45:23;;;;;;;18.93;17.30;;;;;;;17.97;90.89;99548.84;5054562;28;20655;-73
2022/09/08 06:48:00;;;;;;;17.70;16.13;;;;;;;17.99;90.00;99557.50;5054861;28;20628;-73
2022/09/08 06:50:33;;;;;;;18.27;16.97;;;;;;;18.03;90.46;99559.00;5054697;28;20239;-73
2022/09/08 06:53:05;;;;;;;16.53;15.43;;;;;;;18.09;90.19;99567.50;5054872;28;20252;-73
2022/09/08 06:55:38;;;;;;;15.67;14.57;;;;;;;18.10;90.85;99553.34;5053718;28;20226;-73
2022/09/08 06:58:15;;;;;;;16.97;15.50;;;;;;;18.20;90.20;99557.09;5054349;28;20226;-73
2022/09/08 07:00:47;;;;;;;15.60;14.33;;;;;;;18.26;89.97;99576.03;5053709;28;20559;-75
2022/09/08 07:03:27;;;;;;;15.90;14.20;;;;;;;18.30;88.91;99584.59;5054670;28;20288;-74
2022/09/08 07:06:06;;;;;;;14.23;13.13;;;;;;;18.35;88.86;99601.00;5053918;28;20720;-75
2022/09/08 07:08:46;;;;;;;13.03;12.03;;;;;;;18.39;89.30;99591.94;5053150;28;20193;-72
2022/09/08 07:11:23;;;;;;;14.17;12.77;;;;;;;18.47;88.06;99620.50;5047053;28;20671;-72
2022/09/08 07:14:01;;;;;;;14.30;12.77;;;;;;;18.56;87.67;99632.28;5044876;28;20224;-74
2022/09/08 07:16:33;;;;;;;13.50;12.40;;;;;;;18.57;87.22;99640.13;5043940;28;20212;-73
2022/09/08 07:19:05;;;;;;;12.90;11.60;;;;;;;18.61;87.36;99646.91;5044294;28;20279;-72
2022/09/08 07:21:44;;;;;;;14.40;13.30;;;;;;;18.62;86.89;99651.22;5044418;28;20206;-74
2022/09/08 07:24:14;;;;;;;11.73;10.83;;;;;;;18.63;87.37;99645.00;5040343;28;20240;-74
2022/09/08 07:26:48;;;;;;;12.73;11.57;;;;;;;18.67;87.11;99637.69;5033716;28;20568;-74
2022/09/08 07:29:22;;;;;;;12.23;11.33;;;;;;;18.75;86.14;99651.28;5036422;28;20724;-74
2022/09/08 07:31:52;;;;;;;11.67;10.57;;;;;;;18.80;86.52;99651.00;5044472;28;20209;-73
2022/09/08 07:34:23;;;;;;;10.83;9.93;;;;;;;18.84;86.40;99652.50;5043704;28;20224;-74
2022/09/08 07:37:01;;;;;;;11.73;10.63;;;;;;;18.89;86.59;99644.25;5050931;28;20208;-75
2022/09/08 07:39:33;;;;;;;9.90;9.20;;;;;;;18.96;86.19;99648.19;5050577;28;20197;-74
2022/09/08 07:42:02;;;;;;;10.70;10.00;;;;;;;19.06;87.06;99628.09;5042554;28;20674;-73
2022/09/08 07:44:28;;;;;;;8.90;8.23;;;;;;;19.09;85.97;99630.56;5044797;28;20214;-74
2022/09/08 07:47:12;;;;;;;7.83;7.23;;;;;;;19.16;86.00;99639.75;5044530;28;20204;-74
2022/09/08 07:49:50;;;;;;;11.33;10.20;;;;;;;19.15;85.48;99661.03;5045039;28;20247;-76
2022/09/08 07:52:27;;;;;;;9.73;8.83;;;;;;;19.21;85.42;99663.28;5045045;28;20208;-76
2022/09/08 07:55:06;;;;;;;9.03;8.17;;;;;;;19.25;85.24;99680.63;5072923;28;20228;-72
2022/09/08 07:57:43;;;;;;;10.30;9.50;;;;;;;19.36;84.87;99693.13;5073124;28;20228;-72
2022/09/08 08:00:14;;;;;;;12.03;11.13;;;;;;;19.42;85.11;99700.66;5049451;28;20294;-75
2022/09/08 08:03:05;;;;;;;10.87;9.97;;;;;;;19.41;85.52;99670.69;5052751;28;20209;-75
2022/09/08 08:05:39;;;;;;;10.33;9.33;;;;;;;19.10;86.21;99668.44;5051989;28;20260;-75
2022/09/08 08:08:16;;;;;;;11.10;10.20;;;;;;;19.04;85.60;99659.94;5053267;28;20542;-75
2022/09/08 08:10:51;;;;;;;11.60;10.80;;;;;;;19.03;86.27;99649.50;5052530;28;20239;-75
2022/09/08 08:13:27;;;;;;;12.17;11.17;;;;;;;19.17;85.99;99635.34;5052310;28;20715;-76
2022/09/08 08:16:03;;;;;;;13.03;12.07;;;;;;;19.03;86.62;99629.16;5052292;28;20263;-73
2022/09/08 08:18:41;;;;;;;13.67;12.33;;;;;;;18.94;87.79;99586.63;5052858;28;20737;-73
2022/09/08 08:21:14;;;;;;;13.00;11.83;;;;;;;19.05;87.21;99597.31;5052678;28;20624;-73
2022/09/08 08:24:05;;;;;;;10.07;9.10;;;;;;;19.09;86.85;99617.31;5052373;28;20275;-73
2022/09/08 08:26:44;;;;;;;7.87;7.37;;;;;;;19.16;86.52;99631.81;5051747;28;20209;-73
2022/09/08 08:29:28;;;;;;;7.37;6.87;;;;;;;19.22;86.22;99651.72;5052304;28;20266;-73
2022/09/08 08:32:00;;;;;;;7.77;7.17;;;;;;;19.01;86.56;99654.88;5052804;28;20288;-73
2022/09/08 08:34:29;;;;;;;7.50;6.90;;;;;;;19.05;86.59;99644.94;5052674;28;20275;-73
2022/09/08 08:37:01;;;;;;;7.33;6.77;;;;;;;19.16;88.15;99607.16;5052022;28;20663;-73
2022/09/08 08:39:31;;;;;;;7.40;6.80;;;;;;;19.08;86.77;99634.13;5052615;28;20259;-73
2022/09/08 08:42:15;;;;;;;6.90;6.40;;;;;;;19.11;86.66;99622.50;5052509;28;20616;-73
2022/09/08 08:44:52;;;;;;;6.33;6.03;;;;;;;18.98;86.46;99638.34;5052294;28;20233;-73
2022/09/08 08:47:37;;;;;;;7.30;6.70;;;;;;;19.00;87.13;99613.47;5052220;28;20209;-73
2022/09/08 08:50:22;;;;;;;6.73;6.27;;;;;;;19.03;87.00;99610.66;5052587;28;20205;-73
2022/09/08 08:53:07;;;;;;;6.40;5.90;;;;;;;19.11;86.69;99612.78;5052132;28;20679;-73
2022/09/08 08:55:46;;;;;;;6.53;6.00;;;;;;;19.13;86.39;99623.25;5052066;28;20229;-73
2022/09/08 08:58:39;;;;;;;6.60;6.00;;;;;;;19.02;85.63;99642.50;5043424;28;20291;-73
2022/09/08 09:01:25;;;;;;;5.90;5.50;;;;;;;18.93;86.52;99630.75;5030712;28;20209;-73
2022/09/08 09:04:16;;;;;;;5.97;5.50;;;;;;;18.85;87.12;99614.53;5042373;28;20287;-73
2022/09/08 09:07:02;;;;;;;6.47;5.97;;;;;;;18.96;87.13;99609.34;5047824;28;20240;-73
2022/09/08 09:09:44;;;;;;;6.43;5.87;;;;;;;18.89;86.99;99623.09;5048453;28;20210;-73
2022/09/08 09:12:31;;;;;;;7.10;6.60;;;;;;;18.94;88.17;99598.03;5045319;28;20197;-73
2022/09/08 09:15:17;;;;;;;6.10;5.67;;;;;;;18.79;87.71;99591.09;5042319;28;20582;-73
2022/09/08 09:18:13;;;;;;;5.20;4.80;;;;;;;18.74;86.72;99623.13;5043160;28;20244;-72
2022/09/08 09:20:54;;;;;;;4.63;4.33;;;;;;;18.70;84.82;99686.91;5042530;28;20202;-73
2022/09/08 09:23:43;;;;;;;5.50;4.17;;;;;;;18.78;84.80;99708.41;5040264;28;20588;-73
2022/09/08 09:26:20;;;;;;;5.17;4.87;;;;;;;18.82;84.21;99723.97;5042395;28;20209;-74
2022/09/08 09:28:56;;;;;;;4.73;4.43;;;;;;;18.68;84.88;99715.22;5042203;28;20656;-73
2022/09/08 09:32:04;;;;;;;5.20;4.90;;;;;;;18.62;85.25;99698.78;5042182;28;20204;-76
2022/09/08 09:35:00;;;;;;;4.93;4.70;;;;;;;18.69;85.99;99671.97;5042283;28;20221;-73
2022/09/08 09:37:43;;;;;;;4.73;4.43;;;;;;;18.53;84.86;99696.75;5037143;28;20197;-74
2022/09/08 09:40:25;;;;;;;4.20;3.90;;;;;;;18.53;85.88;99682.69;5048982;28;20201;-74
2022/09/08 09:43:28;;;;;;;5.07;4.83;;;;;;;18.58;85.58;99683.25;5042987;28;20206;-73
2022/09/08 09:46:23;;;;;;;5.00;4.70;;;;;;;18.46;86.16;99679.59;5006162;28;20210;-73
2022/09/08 09:49:21;;;;;;;5.00;4.70;;;;;;;18.54;85.74;99674.66;5042736;28;20665;-74
2022/09/08 09:52:09;;;;;;;4.83;4.47;;;;;;;18.61;85.23;99689.19;5042258;28;20212;-73
2022/09/08 09:54:49;;;;;;;5.10;4.80;;;;;;;18.64;85.20;99701.34;5042042;28;20572;-73
2022/09/08 09:57:46;;;;;;;4.77;4.50;;;;;;;18.69;86.24;99672.84;5042118;28;20254;-73
2022/09/08 10:00:17;;;;;;;5.37;5.00;;;;;;;18.45;87.42;99639.09;5041691;28;20205;-74
2022/09/08 10:03:14;;;;;;;6.67;5.80;;;;;;;18.38;89.27;99590.22;5042373;28;20560;-74
2022/09/08 10:06:11;;;;;;;6.10;5.70;;;;;;;18.40;90.01;99566.34;5042378;28;20198;-74
2022/09/08 10:09:16;;;;;;;5.93;5.53;;;;;;;18.36;90.71;99554.31;5045278;28;20720;-74
2022/09/08 10:12:12;;;;;;;6.20;5.80;;;;;;;18.35;91.70;99523.53;5049233;28;20209;-74
2022/09/08 10:15:12;;;;;;;6.47;6.07;;;;;;;18.37;92.14;99519.81;5049243;28;20765;-74
2022/09/08 10:18:33;;;;;;;7.07;6.57;;;;;;;18.12;93.40;99506.56;5041659;28;20197;-74
2022/09/08 10:22:03;;;;;;;6.43;6.03;;;;;;;18.01;95.27;99476.38;5041723;28;20205;-74
2022/09/08 10:25:00;;;;;;;6.43;5.93;;;;;;;17.93;96.85;99447.00;5041844;28;20217;-74
2022/09/08 10:28:27;;;;;;;6.57;6.07;;;;;;;17.81;97.15;99445.13;5041516;28;20220;-74
2022/09/08 10:31:29;;;;;;;5.20;4.90;;;;;;;17.63;96.83;99442.72;5025968;28;20216;-75
2022/09/08 10:34:13;;;;;;;5.93;4.30;;;;;;;17.69;96.49;99457.34;5041657;28;20278;-74
2022/09/08 10:37:03;;;;;;;4.03;3.73;;;;;;;17.55;97.67;99455.56;5041331;28;20568;-75
2022/09/08 10:39:41;;;;;;;4.43;4.03;;;;;;;17.45;98.23;99455.31;5041627;28;20235;-75
2022/09/08 10:42:30;;;;;;;4.80;4.40;;;;;;;17.38;99.51;99435.56;5044215;28;20225;-75
2022/09/08 10:45:13;;;;;;;4.60;4.20;;;;;;;17.38;99.49;99448.75;5048854;28;20274;-74
2022/09/08 10:48:17;;;;;;;5.10;4.60;;;;;;;17.29;100.00;99451.94;5041599;28;20204;-75
2022/09/08 10:50:50;;;;;;;5.10;4.80;;;;;;;17.32;100.00;99449.09;5042067;28;20236;-75
2022/09/08 10:53:51;;;;;;;5.37;5.07;;;;;;;17.31;100.00;99455.34;5041428;28;20201;-74
2022/09/08 10:56:25;;;;;;;5.13;4.77;;;;;;;17.29;100.00;99480.13;5044897;28;20664;-75
2022/09/08 10:59:25;;;;;;;5.37;4.97;;;;;;;17.32;100.00;99478.13;5044967;28;20216;-75
2022/09/08 11:02:08;;;;;;;5.37;5.07;;;;;;;17.33;100.00;99486.91;5045042;28;20205;-75
2022/09/08 11:05:38;;;;;;;5.57;5.27;;;;;;;17.55;100.00;99495.16;5044738;28;20220;-75
2022/09/08 11:08:56;;;;;;;5.77;5.37;;;;;;;17.20;100.00;99510.53;5045452;28;20252;-75
2022/09/08 11:11:46;;;;;;;5.37;5.07;;;;;;;17.33;100.00;99519.41;5045415;28;20215;-77
2022/09/08 11:14:28;;;;;;;5.43;5.03;;;;;;;17.41;100.00;99522.41;5051730;28;20220;-75
2022/09/08 11:17:18;;;;;;;5.50;5.17;;;;;;;17.53;100.00;99535.78;5044917;28;20198;-75
2022/09/08 11:19:48;;;;;;;6.47;5.97;;;;;;;17.33;100.00;99545.78;5045169;28;20229;-76
2022/09/08 11:22:29;;;;;;;5.83;5.43;;;;;;;17.40;100.00;99547.09;5043790;28;20258;-76
2022/09/08 11:25:32;;;;;;;5.57;5.27;;;;;;;17.61;100.00;99555.47;5044326;28;20273;-76
2022/09/08 11:28:12;;;;;;;6.00;5.60;;;;;;;17.59;100.00;99564.44;5044224;28;20215;-76
2022/09/08 11:30:49;;;;;;;6.00;5.60;;;;;;;17.30;100.00;99564.41;5044607;28;20197;-75
2022/09/08 11:33:27;;;;;;;5.77;5.37;;;;;;;17.41;100.00;99563.78;5044364;28;20230;-76
2022/09/08 11:36:04;;;;;;;6.17;5.77;;;;;;;17.35;100.00;99570.28;5044122;28;20211;-76
2022/09/08 11:38:52;;;;;;;5.97;5.47;;;;;;;17.37;100.00;99575.47;5044236;28;20201;-76
2022/09/08 11:41:48;;;;;;;5.20;4.87;;;;;;;17.40;100.00;99577.91;5044368;28;20208;-76
2022/09/08 11:44:46;;;;;;;6.00;5.60;;;;;;;17.55;100.00;99584.03;5046868;28;20225;-76
2022/09/08 11:47:42;;;;;;;5.17;4.77;;;;;;;17.73;100.00;99590.81;5044378;28;20200;-76
2022/09/08 11:50:28;;;;;;;4.63;4.33;;;;;;;17.92;100.00;99598.47;5044589;28;20202;-77
2022/09/08 11:53:19;;;;;;;4.53;4.23;;;;;;;18.08;100.00;99621.25;5046559;28;20206;-77
2022/09/08 11:56:03;;;;;;;4.03;3.83;;;;;;;18.28;99.67;99618.19;5047647;28;20202;-78
2022/09/08 11:58:41;;;;;;;4.20;4.00;;;;;;;18.00;97.97;99653.44;5047698;28;20262;-79
2022/09/08 12:01:29;;;;;;;4.97;4.67;;;;;;;18.09;98.37;99659.94;5044791;28;20579;-78
2022/09/08 12:04:12;;;;;;;4.43;4.13;;;;;;;18.06;99.06;99648.63;5045421;28;20307;-78
2022/09/08 12:07:06;;;;;;;4.57;4.27;;;;;;;18.24;98.90;99645.75;5045598;28;20283;-77
2022/09/08 12:10:03;;;;;;;4.10;3.90;;;;;;;18.46;98.16;99658.44;5045240;28;20536;-77
2022/09/08 12:12:39;;;;;;;3.97;3.67;;;;;;;18.49;97.07;99663.53;5046353;28;20205;-77